TimeMDT,TemperatureF,Dew PointF,Humidity,Sea Level PressureIn,VisibilityMPH,Wind Direction,Wind SpeedMPH,Gust SpeedMPH,PrecipitationIn,Events,Conditions,WindDirDegrees,DateUTC
12:53 AM,28.0,19.9,72,29.82,10.0,ESE,9.2,-,N/A,,Overcast,120,2013-04-10 06:53:00
1:53 AM,26.1,19.0,75,29.82,10.0,East,10.4,-,N/A,,Mostly Cloudy,100,2013-04-10 07:53:00
2:53 AM,24.1,17.1,75,29.87,6.0,ESE,6.9,-,0.00,Snow,Light Snow,110,2013-04-10 08:53:00
3:02 AM,23.0,17.6,80,29.88,1.8,ESE,6.9,-,0.01,Snow,Light Snow,110,2013-04-10 09:02:00
3:20 AM,21.2,17.6,86,29.87,3.0,ESE,10.4,-,0.02,Snow,Light Snow,110,2013-04-10 09:20:00
3:53 AM,21.0,16.0,81,29.91,10.0,ESE,12.7,-,0.02,,Overcast,120,2013-04-10 09:53:00
4:35 AM,19.4,14.0,80,29.87,10.0,ESE,8.1,-,0.00,,Mostly Cloudy,120,2013-04-10 10:35:00
4:53 AM,19.9,14.0,78,29.92,10.0,East,8.1,-,0.00,,Mostly Cloudy,100,2013-04-10 10:53:00
5:05 AM,19.4,15.8,86,29.87,10.0,East,6.9,-,N/A,,Mostly Cloudy,100,2013-04-10 11:05:00
5:53 AM,19.9,15.1,81,29.93,10.0,ESE,9.2,-,N/A,,Overcast,120,2013-04-10 11:53:00
6:25 AM,19.4,15.8,86,29.88,1.8,ESE,6.9,-,0.01,Snow,Light Snow,110,2013-04-10 12:25:00
6:48 AM,19.4,15.8,86,29.89,3.0,SE,8.1,-,0.01,Snow,Light Snow,130,2013-04-10 12:48:00
6:53 AM,19.0,14.0,81,29.96,5.0,SE,5.8,-,0.01,Snow,Light Snow,130,2013-04-10 12:53:00
7:53 AM,21.0,15.1,78,29.97,10.0,SSE,4.6,-,0.00,,Overcast,160,2013-04-10 13:53:00
8:51 AM,24.8,15.8,69,29.92,10.0,SE,5.8,-,0.00,,Overcast,140,2013-04-10 14:51:00
8:53 AM,24.1,16.0,71,29.98,10.0,SE,6.9,-,0.00,,Overcast,130,2013-04-10 14:53:00
9:17 AM,24.8,15.8,69,29.93,10.0,SSE,4.6,-,N/A,,Overcast,150,2013-04-10 15:17:00
9:53 AM,25.0,17.1,72,30.01,10.0,South,3.5,-,N/A,,Overcast,170,2013-04-10 15:53:00
10:02 AM,24.8,17.6,74,29.94,10.0,SSE,4.6,-,N/A,,Overcast,160,2013-04-10 16:02:00
10:38 AM,26.6,19.4,74,29.94,8.0,SSE,5.8,-,0.00,Snow,Light Snow,150,2013-04-10 16:38:00
10:53 AM,28.0,21.0,75,29.98,10.0,SSE,6.9,-,0.00,,Overcast,160,2013-04-10 16:53:00
11:53 AM,36.0,25.0,64,29.92,10.0,Variable,4.6,-,N/A,,Scattered Clouds,0,2013-04-10 17:53:00
12:03 PM,35.6,24.8,65,29.92,10.0,Variable,6.9,-,N/A,,Mostly Cloudy,0,2013-04-10 18:03:00
12:53 PM,39.0,25.0,57,29.89,10.0,WSW,13.8,19.6,N/A,,Overcast,250,2013-04-10 18:53:00
1:53 PM,44.1,21.9,42,29.85,10.0,West,17.3,23.0,N/A,,Partly Cloudy,260,2013-04-10 19:53:00
2:53 PM,43.0,21.0,42,29.85,10.0,West,21.9,-,N/A,,Mostly Cloudy,260,2013-04-10 20:53:00
3:53 PM,39.9,25.0,55,29.87,10.0,NW,15.0,20.7,N/A,,Overcast,320,2013-04-10 21:53:00
4:53 PM,43.0,23.0,45,29.86,10.0,West,19.6,31.1,N/A,,Mostly Cloudy,280,2013-04-10 22:53:00
5:53 PM,39.9,24.1,53,29.89,10.0,NW,20.7,-,N/A,,Overcast,310,2013-04-10 23:53:00
6:53 PM,37.9,21.0,51,29.92,10.0,WNW,19.6,-,N/A,,Mostly Cloudy,300,2013-04-11 00:53:00
7:53 PM,33.1,19.0,56,29.96,10.0,NW,16.1,-,N/A,,Clear,310,2013-04-11 01:53:00
8:53 PM,30.0,18.0,61,29.98,10.0,WNW,12.7,-,N/A,,Clear,300,2013-04-11 02:53:00
9:53 PM,30.0,18.0,61,29.96,10.0,West,16.1,-,N/A,,Clear,270,2013-04-11 03:53:00
10:53 PM,30.0,18.0,61,29.96,10.0,West,13.8,-,N/A,,Clear,260,2013-04-11 04:53:00
11:53 PM,27.0,17.1,66,29.91,10.0,West,9.2,-,N/A,,Clear,280,2013-04-11 05:53:00